createdAt,value
2018-05-02T00:02:25.131Z,6.40
2018-05-02T00:04:53.396Z,6.50
2018-05-02T00:07:21.488Z,6.60
2018-05-02T00:09:49.547Z,6.30
2018-05-02T00:12:17.648Z,6.30
2018-05-02T00:14:45.716Z,6.30
2018-05-02T00:17:13.793Z,6.20
2018-05-02T00:19:42.107Z,6.10
2018-05-02T00:22:10.428Z,6.20
2018-05-02T00:24:38.536Z,6.10
2018-05-02T00:27:06.870Z,6.00
2018-05-02T00:29:34.963Z,6.10
2018-05-02T00:32:03.047Z,6.00
2018-05-02T00:34:31.112Z,6.00
2018-05-02T00:37:00.039Z,6.10
2018-05-02T00:39:28.175Z,6.00
2018-05-02T00:41:56.241Z,6.00
2018-05-02T00:44:24.320Z,6.00
2018-05-02T00:46:52.447Z,6.00
2018-05-02T00:49:20.583Z,5.80
2018-05-02T00:51:50.144Z,5.90
2018-05-02T00:54:18.232Z,5.90
2018-05-02T00:56:46.315Z,5.90
2018-05-02T00:59:14.393Z,5.90
2018-05-02T01:01:43.247Z,5.90
2018-05-02T01:04:11.767Z,6.00
2018-05-02T01:06:41.186Z,6.00
2018-05-02T01:09:10.029Z,6.00
2018-05-02T01:11:38.425Z,6.20
2018-05-02T01:14:06.497Z,6.30
2018-05-02T01:16:35.053Z,6.10
2018-05-02T01:19:03.063Z,6.30
2018-05-02T01:21:31.414Z,6.30
2018-05-02T01:24:02.600Z,6.30
2018-05-02T01:26:31.459Z,6.40
2018-05-02T01:28:59.520Z,6.60
2018-05-02T01:31:27.595Z,6.70
2018-05-02T01:33:56.359Z,6.70
2018-05-02T01:36:24.433Z,6.60
2018-05-02T01:38:56.291Z,6.70
2018-05-02T01:41:24.409Z,6.60
2018-05-02T01:43:52.484Z,6.60
2018-05-02T01:46:20.768Z,6.60
2018-05-02T01:49:06.717Z,6.40
2018-05-02T01:51:34.880Z,6.30
2018-05-02T01:54:03.215Z,6.10
2018-05-02T01:56:31.307Z,6.00
2018-05-02T01:58:59.368Z,5.90
2018-05-02T02:01:27.703Z,5.80
2018-05-02T02:03:57.495Z,5.80
2018-05-02T02:06:25.714Z,5.90
2018-05-02T02:08:53.772Z,6.00
2018-05-02T02:11:22.035Z,6.00
2018-05-02T02:13:50.225Z,5.80
2018-05-02T02:16:18.285Z,5.80
2018-05-02T02:18:46.355Z,5.90
2018-05-02T02:21:14.460Z,5.80
2018-05-02T02:23:43.417Z,5.80
2018-05-02T02:26:11.707Z,5.70
2018-05-02T02:28:39.784Z,5.60
2018-05-02T02:31:07.875Z,5.80
2018-05-02T02:33:40.190Z,5.50
2018-05-02T02:36:08.387Z,5.30
2018-05-02T02:38:39.379Z,5.20
2018-05-02T02:41:11.304Z,5.00
2018-05-02T02:43:41.503Z,4.90
2018-05-02T02:46:09.613Z,5.00
2018-05-02T02:48:37.672Z,5.10
2018-05-02T02:51:05.848Z,5.20
2018-05-02T02:53:33.925Z,5.20
2018-05-02T02:56:02.212Z,5.20
2018-05-02T02:58:30.311Z,5.00
2018-05-02T03:00:58.559Z,5.00
2018-05-02T03:03:26.658Z,5.10
2018-05-02T03:05:54.764Z,5.10
2018-05-02T03:08:22.846Z,5.20
2018-05-02T03:10:51.186Z,5.30
2018-05-02T03:13:19.484Z,5.20
2018-05-02T03:15:50.704Z,5.00
2018-05-02T03:18:19.979Z,4.90
2018-05-02T03:20:48.162Z,4.80
2018-05-02T03:23:16.511Z,4.70
2018-05-02T03:25:44.833Z,4.80
2018-05-02T03:28:12.960Z,4.80
2018-05-02T03:30:41.296Z,4.70
2018-05-02T03:33:09.502Z,4.70
2018-05-02T03:35:38.270Z,4.60
2018-05-02T03:38:06.595Z,4.70
2018-05-02T03:40:35.951Z,4.60
2018-05-02T03:43:04.748Z,4.60
2018-05-02T03:45:32.980Z,4.50
2018-05-02T03:48:01.815Z,4.50
2018-05-02T03:50:29.881Z,4.50
2018-05-02T03:52:58.192Z,4.60
2018-05-02T03:55:26.275Z,4.50
2018-05-02T03:57:54.387Z,4.70
2018-05-02T04:00:44.054Z,4.80
2018-05-02T04:03:30.158Z,4.70
2018-05-02T04:09:05.743Z,4.80
2018-05-02T04:11:33.820Z,4.80
2018-05-02T04:14:02.853Z,4.70
2018-05-02T04:16:30.944Z,4.80
2018-05-02T04:18:59.038Z,4.80
2018-05-02T04:21:28.633Z,4.70
2018-05-02T04:23:57.543Z,4.50
2018-05-02T04:26:25.720Z,4.60
2018-05-02T04:28:54.862Z,4.70
2018-05-02T04:31:29.279Z,4.70
2018-05-02T04:33:58.196Z,4.80
2018-05-02T04:36:27.832Z,4.80
2018-05-02T04:38:56.002Z,5.00
2018-05-02T04:41:24.603Z,5.00
2018-05-02T04:43:52.672Z,4.80
2018-05-02T04:46:20.778Z,4.80
2018-05-02T04:48:50.904Z,4.80
2018-05-02T04:51:19.083Z,4.90
2018-05-02T04:53:47.125Z,4.80
2018-05-02T04:56:15.305Z,4.70
2018-05-02T04:58:43.481Z,4.90
2018-05-02T05:01:11.764Z,5.00
2018-05-02T05:03:41.231Z,5.10
2018-05-02T05:06:09.544Z,5.20
2018-05-02T05:08:37.856Z,5.40
2018-05-02T05:11:05.939Z,5.50
2018-05-02T05:13:34.040Z,5.70
2018-05-02T05:16:02.334Z,5.80
2018-05-02T05:18:33.551Z,5.90
2018-05-02T05:21:01.668Z,5.90
2018-05-02T05:23:31.529Z,6.10
2018-05-02T05:26:00.338Z,6.20
2018-05-02T05:28:28.457Z,6.40
2018-05-02T05:30:58.008Z,6.40
2018-05-02T05:33:27.364Z,6.50
2018-05-02T05:35:56.472Z,6.60
2018-05-02T05:38:25.089Z,6.70
2018-05-02T05:40:54.084Z,6.60
2018-05-02T05:43:22.867Z,6.70
2018-05-02T05:45:51.191Z,6.80
2018-05-02T05:48:19.447Z,6.90
2018-05-02T05:50:48.226Z,6.90
2018-05-02T05:53:17.004Z,6.90
2018-05-02T05:55:46.027Z,7.10
2018-05-02T05:58:14.244Z,7.10
2018-05-02T06:00:44.031Z,7.10
2018-05-02T06:03:12.087Z,7.20
2018-05-02T06:05:40.995Z,7.20
2018-05-02T06:08:09.145Z,7.20
2018-05-02T06:10:37.208Z,7.40
2018-05-02T06:13:06.006Z,7.40
2018-05-02T06:15:34.876Z,7.40
2018-05-02T06:18:04.274Z,7.40
2018-05-02T06:20:32.605Z,7.50
2018-05-02T06:23:00.720Z,7.50
2018-05-02T06:25:28.805Z,7.50
2018-05-02T06:27:57.226Z,7.60
2018-05-02T06:30:25.476Z,7.60
2018-05-02T06:32:53.936Z,7.70
2018-05-02T06:35:22.514Z,7.70
2018-05-02T06:37:50.778Z,7.80
2018-05-02T06:40:18.837Z,7.80
2018-05-02T06:42:47.697Z,7.80
2018-05-02T06:45:15.908Z,7.90
2018-05-02T06:47:44.003Z,7.90
2018-05-02T06:50:12.335Z,7.90
2018-05-02T06:52:41.197Z,8.00
2018-05-02T06:55:09.507Z,8.00
2018-05-02T06:57:39.527Z,8.10
2018-05-02T07:00:07.795Z,8.10
2018-05-02T07:02:37.245Z,8.20
2018-05-02T07:05:06.868Z,8.30
2018-05-02T07:07:35.042Z,8.30
2018-05-02T07:10:03.785Z,8.40
2018-05-02T07:12:32.997Z,8.50
2018-05-02T07:15:01.073Z,8.60
2018-05-02T07:17:29.880Z,8.60
2018-05-02T07:19:58.663Z,8.70
2018-05-02T07:22:28.680Z,8.70
2018-05-02T07:24:56.977Z,8.80
2018-05-02T07:27:25.744Z,8.80
2018-05-02T07:29:53.853Z,8.90
2018-05-02T07:32:23.540Z,8.90
2018-05-02T07:34:51.904Z,9.00
2018-05-02T07:37:20.179Z,9.10
2018-05-02T07:39:48.571Z,9.10
2018-05-02T07:42:16.688Z,9.20
2018-05-02T07:44:44.785Z,9.30
2018-05-02T07:47:14.247Z,9.30
2018-05-02T07:49:42.335Z,9.30
2018-05-02T07:52:10.426Z,9.40
2018-05-02T07:54:38.657Z,9.40
2018-05-02T07:57:06.775Z,9.50
2018-05-02T07:59:34.859Z,9.50
2018-05-02T08:02:03.201Z,9.60
2018-05-02T08:04:31.276Z,9.70
2018-05-02T08:07:00.127Z,9.70
2018-05-02T08:09:29.196Z,9.70
2018-05-02T08:11:57.327Z,9.80
2018-05-02T08:14:25.675Z,9.80
2018-05-02T08:16:54.661Z,9.80
2018-05-02T08:19:23.872Z,9.90
2018-05-02T08:22:00.166Z,10.00
2018-05-02T08:24:29.129Z,10.00
2018-05-02T08:27:04.455Z,10.10
2018-05-02T08:29:32.572Z,10.10
2018-05-02T08:32:00.675Z,10.20
2018-05-02T08:34:33.812Z,10.20
2018-05-02T08:37:02.880Z,10.30
2018-05-02T08:39:31.019Z,10.30
2018-05-02T08:42:11.311Z,10.40
2018-05-02T08:44:42.705Z,10.40
2018-05-02T08:47:11.700Z,10.50
2018-05-02T08:49:41.064Z,10.50
2018-05-02T08:52:09.262Z,10.60
2018-05-02T08:54:37.363Z,10.60
2018-05-02T08:57:06.029Z,10.60
2018-05-02T08:59:35.091Z,10.70
2018-05-02T09:02:04.808Z,10.70
2018-05-02T09:04:32.930Z,10.90
2018-05-02T09:07:01.048Z,10.90
2018-05-02T09:09:31.063Z,11.00
2018-05-02T09:12:03.033Z,11.00
2018-05-02T09:14:42.222Z,11.10
2018-05-02T09:17:11.899Z,11.10
2018-05-02T09:19:40.946Z,11.20
2018-05-02T09:22:09.045Z,11.20
2018-05-02T09:24:37.162Z,11.20
2018-05-02T09:27:05.285Z,11.30
2018-05-02T09:29:34.261Z,11.30
2018-05-02T09:32:03.184Z,11.40
2018-05-02T09:34:31.279Z,11.40
2018-05-02T09:37:00.119Z,11.40
2018-05-02T09:39:29.364Z,11.40
2018-05-02T09:41:57.688Z,11.40
2018-05-02T09:44:26.013Z,11.50
2018-05-02T09:46:54.381Z,11.60
2018-05-02T09:49:24.460Z,11.70
2018-05-02T09:51:52.581Z,11.80
2018-05-02T09:54:20.689Z,11.50
2018-05-02T09:56:50.443Z,11.90
2018-05-02T09:59:19.239Z,12.00
2018-05-02T10:01:48.446Z,12.10
2018-05-02T10:04:17.048Z,12.20
2018-05-02T10:06:46.099Z,12.20
2018-05-02T10:09:14.480Z,12.20
2018-05-02T10:11:43.375Z,12.40
2018-05-02T10:14:14.519Z,12.50
2018-05-02T10:16:45.455Z,12.70
2018-05-02T10:19:13.609Z,12.70
2018-05-02T10:21:45.223Z,12.70
2018-05-02T10:24:13.304Z,12.90
2018-05-02T10:26:42.210Z,13.00
2018-05-02T10:29:11.412Z,13.10
2018-05-02T10:31:40.942Z,13.10
2018-05-02T10:34:09.634Z,13.00
2018-05-02T10:36:39.637Z,13.00
2018-05-02T10:39:07.947Z,13.10
2018-05-02T10:41:36.275Z,13.20
2018-05-02T10:44:06.348Z,13.20
2018-05-02T10:46:34.664Z,13.20
2018-05-02T10:49:03.633Z,13.20
2018-05-02T10:51:32.197Z,13.30
2018-05-02T10:54:00.304Z,13.40
2018-05-02T10:56:28.695Z,13.40
2018-05-02T10:58:57.894Z,13.40
2018-05-02T11:01:26.032Z,13.30
2018-05-02T11:03:55.609Z,13.30
2018-05-02T11:06:24.268Z,13.30
2018-05-02T11:08:52.593Z,13.40
2018-05-02T11:11:21.575Z,13.40
2018-05-02T11:13:50.581Z,13.40
2018-05-02T11:16:18.872Z,13.40
2018-05-02T11:18:46.964Z,13.40
2018-05-02T11:21:15.826Z,13.50
2018-05-02T11:23:43.975Z,13.70
2018-05-02T11:26:12.077Z,13.70
2018-05-02T11:28:40.944Z,13.70
2018-05-02T11:31:09.090Z,13.70
2018-05-02T11:33:37.917Z,13.70
2018-05-02T11:36:06.168Z,13.80
2018-05-02T11:38:35.988Z,13.80
2018-05-02T11:41:04.227Z,14.00
2018-05-02T11:43:33.117Z,14.10
2018-05-02T11:46:01.888Z,14.10
2018-05-02T11:48:30.351Z,14.10
2018-05-02T11:50:59.235Z,14.10
2018-05-02T11:53:28.041Z,14.20
2018-05-02T11:55:56.948Z,14.30
2018-05-02T11:58:31.166Z,14.30
2018-05-02T12:01:00.728Z,14.30
2018-05-02T12:03:30.016Z,14.50
2018-05-02T12:06:02.567Z,14.60
2018-05-02T12:08:33.055Z,14.80
2018-05-02T12:11:02.245Z,15.00
2018-05-02T12:13:30.432Z,15.20
2018-05-02T12:15:58.725Z,15.50
2018-05-02T12:18:26.998Z,15.60
2018-05-02T12:20:56.650Z,15.80
2018-05-02T12:23:24.770Z,15.90
2018-05-02T12:25:53.112Z,16.00
2018-05-02T12:28:21.291Z,16.00
2018-05-02T12:30:49.632Z,16.00
2018-05-02T12:33:19.312Z,15.90
2018-05-02T12:35:48.084Z,16.10
2018-05-02T12:38:16.859Z,16.20
2018-05-02T12:40:45.806Z,16.30
2018-05-02T12:43:15.527Z,16.40
2018-05-02T12:45:44.396Z,16.60
2018-05-02T12:48:13.865Z,16.90
2018-05-02T12:50:43.383Z,16.90
2018-05-02T12:53:12.149Z,17.00
2018-05-02T12:55:41.799Z,17.20
2018-05-02T12:58:09.904Z,17.20
2018-05-02T13:00:39.464Z,17.30
2018-05-02T13:03:07.586Z,17.40
2018-05-02T13:05:37.622Z,17.50
2018-05-02T13:08:05.909Z,17.40
2018-05-02T13:10:34.180Z,17.90
2018-05-02T13:13:03.147Z,18.00
2018-05-02T13:15:31.395Z,18.00
2018-05-02T13:18:00.823Z,17.70
2018-05-02T13:20:29.149Z,17.90
2018-05-02T13:22:58.980Z,17.90
2018-05-02T13:25:28.187Z,17.90
2018-05-02T13:27:57.055Z,18.00
2018-05-02T13:30:25.408Z,18.10
2018-05-02T13:32:55.129Z,18.10
2018-05-02T13:35:23.384Z,18.00
2018-05-02T13:37:51.924Z,17.90
2018-05-02T13:40:20.276Z,17.70
2018-05-02T13:42:48.514Z,17.70
2018-05-02T13:45:16.594Z,17.80
2018-05-02T13:47:45.429Z,17.80
2018-05-02T13:50:13.530Z,17.80
2018-05-02T13:52:42.565Z,17.90
2018-05-02T13:55:10.667Z,18.10
2018-05-02T13:57:38.830Z,18.20
2018-05-02T14:00:07.909Z,18.30
2018-05-02T14:02:36.184Z,18.30
2018-05-02T14:05:05.144Z,18.20
2018-05-02T14:07:36.855Z,17.90
2018-05-02T14:10:10.837Z,17.90
2018-05-02T14:12:39.163Z,17.80
2018-05-02T14:15:08.943Z,17.90
2018-05-02T14:17:37.822Z,17.90
2018-05-02T14:20:06.622Z,18.10
2018-05-02T14:22:34.956Z,18.20
2018-05-02T14:25:03.284Z,18.30
2018-05-02T14:27:31.686Z,18.40
2018-05-02T14:30:00.005Z,18.50
2018-05-02T14:32:28.325Z,18.60
2018-05-02T14:34:56.691Z,18.50
2018-05-02T14:37:25.430Z,18.40
2018-05-02T14:39:55.185Z,18.40
2018-05-02T14:42:24.136Z,18.50
2018-05-02T14:45:00.301Z,18.50
2018-05-02T14:47:29.384Z,18.60
2018-05-02T14:50:01.691Z,18.60
2018-05-02T14:52:29.797Z,18.60
2018-05-02T14:54:58.692Z,18.70
2018-05-02T14:57:26.804Z,18.70
2018-05-02T14:59:56.744Z,18.70
2018-05-02T15:02:25.927Z,18.70
2018-05-02T15:04:55.800Z,18.70
2018-05-02T15:07:24.141Z,18.70
2018-05-02T15:09:53.467Z,18.70
2018-05-02T15:12:22.689Z,18.60
2018-05-02T15:14:51.472Z,18.70
2018-05-02T15:17:19.811Z,18.70
2018-05-02T15:19:48.699Z,18.90
2018-05-02T15:22:16.972Z,19.00
2018-05-02T15:24:45.401Z,19.00
2018-05-02T15:27:14.619Z,19.10
2018-05-02T15:29:43.445Z,19.10
2018-05-02T15:32:14.680Z,19.10
2018-05-02T15:34:44.308Z,19.10
2018-05-02T15:37:13.136Z,19.10
2018-05-02T15:39:41.776Z,19.10
2018-05-02T15:42:10.036Z,19.20
2018-05-02T15:44:40.686Z,19.10
2018-05-02T15:47:08.967Z,19.20
2018-05-02T15:49:37.942Z,19.10
2018-05-02T15:52:06.095Z,18.80
2018-05-02T15:54:38.168Z,19.00
2018-05-02T15:57:07.085Z,19.10
2018-05-02T15:59:35.223Z,19.20
2018-05-02T16:02:03.357Z,19.20
2018-05-02T16:04:31.467Z,19.30
2018-05-02T16:07:01.909Z,19.20
2018-05-02T16:09:30.020Z,19.20
2018-05-02T16:12:02.736Z,19.20
2018-05-02T16:14:31.754Z,19.10
2018-05-02T16:17:00.623Z,19.10
2018-05-02T16:19:29.620Z,19.20
2018-05-02T16:21:58.920Z,19.20
2018-05-02T16:24:27.966Z,19.10
2018-05-02T16:26:56.201Z,19.00
2018-05-02T16:29:24.336Z,19.20
2018-05-02T16:31:52.455Z,19.10
2018-05-02T16:34:22.229Z,18.90
2018-05-02T16:36:50.553Z,18.90
2018-05-02T16:39:21.114Z,19.00
2018-05-02T16:41:49.723Z,19.10
2018-05-02T16:44:18.904Z,19.10
2018-05-02T16:46:48.451Z,19.10
2018-05-02T16:49:19.027Z,19.10
2018-05-02T16:51:48.256Z,19.00
2018-05-02T16:54:16.616Z,19.20
2018-05-02T16:56:44.917Z,19.30
2018-05-02T16:59:13.228Z,19.20
2018-05-02T17:01:42.185Z,19.30
2018-05-02T17:04:11.108Z,19.10
2018-05-02T17:06:40.277Z,18.90
2018-05-02T17:09:11.220Z,18.80
2018-05-02T17:11:40.047Z,18.70
2018-05-02T17:14:08.653Z,18.70
2018-05-02T17:16:38.278Z,18.80
2018-05-02T17:19:06.987Z,18.60
2018-05-02T17:21:35.540Z,18.40
2018-05-02T17:24:05.425Z,18.30
2018-05-02T17:26:33.511Z,18.20
2018-05-02T17:29:02.917Z,18.00
2018-05-02T17:31:32.009Z,18.00
2018-05-02T17:34:00.776Z,18.00
2018-05-02T17:36:29.311Z,17.80
2018-05-02T17:38:57.480Z,17.70
2018-05-02T17:41:26.327Z,17.60
2018-05-02T17:43:55.175Z,17.60
2018-05-02T17:46:23.565Z,17.60
2018-05-02T17:48:52.345Z,17.50
2018-05-02T17:51:20.975Z,17.50
2018-05-02T17:53:49.292Z,17.50
2018-05-02T17:56:17.612Z,17.50
2018-05-02T17:58:46.420Z,17.40
2018-05-02T18:01:15.311Z,17.30
2018-05-02T18:03:43.776Z,17.30
2018-05-02T18:06:12.009Z,17.20
2018-05-02T18:08:40.349Z,17.10
2018-05-02T18:11:10.781Z,17.10
2018-05-02T18:13:39.688Z,17.10
2018-05-02T18:16:08.068Z,17.10
2018-05-02T18:18:36.467Z,17.00
2018-05-02T18:21:05.382Z,16.90
2018-05-02T18:23:37.814Z,16.90
2018-05-02T18:26:06.121Z,16.80
2018-05-02T18:28:35.200Z,16.80
2018-05-02T18:31:03.521Z,16.60
2018-05-02T18:33:32.460Z,16.60
2018-05-02T18:36:00.695Z,16.50
2018-05-02T18:38:29.752Z,16.40
2018-05-02T18:40:58.591Z,16.40
2018-05-02T18:43:26.900Z,16.40
2018-05-02T18:45:55.300Z,16.30
2018-05-02T18:48:28.148Z,16.20
2018-05-02T18:50:56.402Z,16.10
2018-05-02T18:53:24.513Z,16.10
2018-05-02T18:55:53.468Z,16.00
2018-05-02T18:58:22.710Z,16.00
2018-05-02T19:00:51.024Z,15.90
2018-05-02T19:03:23.420Z,15.90
2018-05-02T19:05:51.539Z,15.80
2018-05-02T19:08:21.962Z,15.70
2018-05-02T19:10:50.920Z,15.70
2018-05-02T19:13:19.932Z,15.70
2018-05-02T19:15:49.711Z,15.60
2018-05-02T19:18:26.692Z,15.60
2018-05-02T19:20:55.548Z,15.50
2018-05-02T19:23:24.657Z,15.50
2018-05-02T19:25:59.991Z,15.40
2018-05-02T19:28:29.748Z,15.30
2018-05-02T19:31:07.169Z,15.30
2018-05-02T19:33:53.636Z,15.20
2018-05-02T19:36:22.525Z,15.20
2018-05-02T19:38:50.619Z,15.10
2018-05-02T19:41:25.807Z,15.00
2018-05-02T19:44:00.912Z,15.00
2018-05-02T19:46:29.004Z,14.90
2018-05-02T19:48:57.264Z,14.90
2018-05-02T19:51:32.759Z,14.80
2018-05-02T19:54:00.932Z,14.70
2018-05-02T19:56:30.124Z,14.70
2018-05-02T19:58:59.000Z,14.60
2018-05-02T20:01:34.407Z,14.60
2018-05-02T20:04:03.376Z,14.60
2018-05-02T20:06:34.150Z,14.50
2018-05-02T20:09:11.591Z,14.40
2018-05-02T20:11:46.821Z,14.40
2018-05-02T20:14:15.841Z,14.40
2018-05-02T20:16:43.967Z,14.20
2018-05-02T20:19:13.195Z,14.20
2018-05-02T20:21:45.809Z,14.20
2018-05-02T20:24:14.093Z,14.10
2018-05-02T20:26:42.381Z,14.00
2018-05-02T20:29:12.246Z,14.10
2018-05-02T20:31:40.350Z,14.10
2018-05-02T20:34:08.460Z,14.10
2018-05-02T20:36:38.209Z,14.10
2018-05-02T20:39:06.352Z,13.90
2018-05-02T20:41:35.407Z,14.00
2018-05-02T20:44:06.813Z,13.90
2018-05-02T20:46:35.064Z,13.80
2018-05-02T20:49:04.062Z,13.80
2018-05-02T20:51:34.268Z,13.70
2018-05-02T20:54:05.910Z,13.50
2018-05-02T20:56:34.016Z,13.40
2018-05-02T20:59:02.948Z,13.40
2018-05-02T21:01:31.180Z,13.30
2018-05-02T21:03:59.624Z,13.20
2018-05-02T21:06:27.961Z,13.00
2018-05-02T21:08:57.042Z,12.90
2018-05-02T21:11:26.342Z,12.90
2018-05-02T21:13:55.142Z,12.80
2018-05-02T21:16:23.960Z,13.00
2018-05-02T21:18:52.270Z,13.10
2018-05-02T21:21:21.122Z,13.00
2018-05-02T21:23:49.567Z,13.00
2018-05-02T21:26:17.903Z,12.90
2018-05-02T21:28:46.723Z,12.60
2018-05-02T21:31:15.026Z,12.60
2018-05-02T21:33:43.109Z,12.40
2018-05-02T21:36:11.454Z,12.30
2018-05-02T21:38:39.760Z,12.20
2018-05-02T21:41:08.698Z,12.00
2018-05-02T21:43:37.434Z,11.80
2018-05-02T21:46:06.228Z,11.90
2018-05-02T21:48:34.544Z,11.90
2018-05-02T21:51:03.588Z,11.90
2018-05-02T21:53:33.026Z,11.80
2018-05-02T21:56:01.871Z,11.90
2018-05-02T21:58:30.693Z,11.80
2018-05-02T22:00:59.503Z,11.80
2018-05-02T22:03:28.266Z,11.90
2018-05-02T22:05:57.282Z,11.90
2018-05-02T22:08:25.594Z,11.40
2018-05-02T22:10:54.460Z,11.50
2018-05-02T22:13:24.232Z,11.30
2018-05-02T22:15:52.569Z,11.30
2018-05-02T22:18:21.478Z,11.20
2018-05-02T22:20:49.761Z,11.30
2018-05-02T22:23:17.846Z,11.20
2018-05-02T22:25:46.182Z,11.20
2018-05-02T22:28:15.735Z,11.20
2018-05-02T22:30:44.519Z,11.10
2018-05-02T22:33:12.637Z,11.20
2018-05-02T22:35:41.380Z,11.10
2018-05-02T22:38:09.924Z,11.00
2018-05-02T22:40:39.463Z,11.00
2018-05-02T22:43:08.324Z,11.00
2018-05-02T22:45:38.472Z,10.90
2018-05-02T22:48:07.280Z,10.70
2018-05-02T22:50:39.564Z,10.70
2018-05-02T22:53:08.443Z,10.70
2018-05-02T22:55:37.327Z,10.90
2018-05-02T22:58:06.140Z,10.90
2018-05-02T23:00:34.997Z,11.00
2018-05-02T23:03:03.796Z,11.00
2018-05-02T23:05:32.142Z,10.70
2018-05-02T23:08:01.988Z,10.50
2018-05-02T23:10:30.697Z,10.40
2018-05-02T23:12:58.990Z,10.20
2018-05-02T23:15:27.399Z,10.50
2018-05-02T23:17:55.538Z,10.50
2018-05-02T23:20:24.460Z,10.70
2018-05-02T23:22:52.963Z,10.70
2018-05-02T23:25:21.762Z,10.60
2018-05-02T23:27:51.504Z,10.70
2018-05-02T23:30:20.038Z,10.70
2018-05-02T23:32:48.707Z,10.80
2018-05-02T23:35:17.010Z,10.70
2018-05-02T23:37:45.884Z,10.70
2018-05-02T23:40:15.103Z,10.80
2018-05-02T23:42:44.331Z,10.80
2018-05-02T23:45:12.632Z,10.50
2018-05-02T23:47:40.832Z,10.40
2018-05-02T23:50:10.917Z,10.40
2018-05-02T23:52:39.690Z,10.50
2018-05-02T23:55:07.765Z,10.60
2018-05-02T23:57:36.731Z,10.40
